Meteorología y climatología de Navarra
Datos de la estación - Meteo Navarra

Estación de Yesa GN

Altitud 487 m.


Datos desde el 12/09/2019 hasta el 13/09/2019 en horario solar
Los datos son PROVISIONALES

Anterior Página 1 de 1 Siguiente Descargar: Formato para Excel 2000 o superior   Formato csv   Formato para OpenOffice Calc
Fecha Temperatura Humedad relativa Radiación global Insolación Precipitación Vel. viento 10 m Vel. viento 10 m Dir. viento 10 m
ºC % W/m² s l/m² m/s km/h º
12/09/2019 0:00 13.0 71 0.0 0 0.0 1.9 6.8 327
12/09/2019 0:10 12.3 73 0.0 0 0.0 2.2 7.7 306
12/09/2019 0:20 12.0 73 0.0 0 0.0 1.0 3.6 277
12/09/2019 0:30 11.5 75 0.0 0 0.0 1.4 4.9 289
12/09/2019 0:40 11.5 76 0.0 0 0.0 2.7 9.8 324
12/09/2019 0:50 12.0 75 0.0 0 0.0 2.9 10.3 319
12/09/2019 1:00 11.7 75 0.0 0 0.0 2.5 9.0 320
12/09/2019 1:10 11.3 76 0.0 0 0.0 1.7 6.0 305
12/09/2019 1:20 11.2 76 0.0 0 0.0 0.4 1.3 293
12/09/2019 1:30 10.7 78 0.0 0 0.0 0.7 2.4 312
12/09/2019 1:40 10.4 78 0.0 0 0.0 0.7 2.4 249
12/09/2019 1:50 10.3 80 0.0 0 0.0 0.5 1.6 16
12/09/2019 2:00 9.8 82 0.0 0 0.0 0.1 0.3 23
12/09/2019 2:10 9.4 83 0.0 0 0.0 0.8 3.0 343
12/09/2019 2:20 9.4 84 0.0 0 0.0 0.3 1.2 20
12/09/2019 2:30 9.4 83 0.0 0 0.0 0.2 0.5 68
12/09/2019 2:40 8.7 85 0.0 0 0.0 0.4 1.3 54
12/09/2019 2:50 8.5 88 0.0 0 0.0 0.9 3.1 30
12/09/2019 3:00 8.8 87 0.0 0 0.0 0.8 2.8 355
12/09/2019 3:10 9.2 85 0.0 0 0.0 0.1 0.2 112
12/09/2019 3:20 8.6 88 0.0 0 0.0 1.0 3.4 85
12/09/2019 3:30 10.1 88 0.0 0 0.0 1.4 4.9 100
12/09/2019 3:40 10.9 87 0.0 0 0.0 1.6 5.8 105
12/09/2019 3:50 11.2 85 0.0 0 0.0 1.2 4.4 96
12/09/2019 4:00 11.4 84 0.0 0 0.0 1.9 6.7 96
12/09/2019 4:10 11.5 83 0.0 0 0.0 2.5 9.1 97
12/09/2019 4:20 11.7 81 0.0 0 0.0 2.0 7.3 106
12/09/2019 4:30 11.8 80 0.0 0 0.0 2.4 8.6 110
12/09/2019 4:40 11.7 80 0.0 0 0.0 3.0 10.8 94
12/09/2019 4:50 11.6 81 0.0 0 0.0 2.2 8.1 89
12/09/2019 5:00 11.5 80 0.0 0 0.0 2.1 7.6 91
12/09/2019 5:10 11.4 79 0.0 0 0.0 2.4 8.7 99
12/09/2019 5:20 11.5 81 0.0 0 0.0 3.4 12.2 97
12/09/2019 5:30 11.2 81 0.0 0 0.0 1.9 6.9 88
12/09/2019 5:40 11.3 82 0.0 0 0.0 1.8 6.4 101
12/09/2019 5:50 11.2 82 0.0 0 0.0 2.4 8.8 101
12/09/2019 6:00 11.2 81 0.0 0 0.0 3.1 11.2 107
12/09/2019 6:10 11.3 82 33.0 424 0.0 2.1 7.7 110
12/09/2019 6:20 11.2 84 60.9 600 0.0 2.3 8.4 101
12/09/2019 6:30 11.4 83 87.7 600 0.0 2.2 8.0 92
12/09/2019 6:40 11.7 81 117.1 600 0.0 2.4 8.5 101
12/09/2019 6:50 12.1 79 148.1 600 0.0 2.4 8.8 100
12/09/2019 7:00 12.4 79 179.8 600 0.0 2.3 8.3 101
12/09/2019 7:10 12.8 77 211.3 600 0.0 1.7 6.0 112
12/09/2019 7:20 13.2 74 243.7 600 0.0 1.7 6.2 112
12/09/2019 7:30 13.5 72 276.6 600 0.0 2.4 8.7 117
12/09/2019 7:40 13.9 71 309.4 600 0.0 2.7 9.5 116
12/09/2019 7:50 14.0 70 342.2 600 0.0 2.9 10.3 120
12/09/2019 8:00 14.3 67 376.0 600 0.0 2.9 10.4 118
12/09/2019 8:10 14.7 66 412.0 600 0.0 2.0 7.1 125
12/09/2019 8:20 15.2 65 448.5 600 0.0 1.6 5.7 116
12/09/2019 8:30 15.7 62 469.7 600 0.0 1.9 6.9 121
12/09/2019 8:40 16.2 61 492.4 600 0.0 2.0 7.1 101
12/09/2019 8:50 16.8 59 514.1 600 0.0 2.0 7.1 134
12/09/2019 9:00 16.7 59 550.5 600 0.0 1.7 6.1 159
12/09/2019 9:10 17.3 58 578.5 600 0.0 1.9 6.9 124
12/09/2019 9:20 18.2 55 604.6 600 0.0 2.2 7.9 125
12/09/2019 9:30 18.6 53 630.0 600 0.0 1.8 6.4 142
12/09/2019 9:40 19.0 52 654.6 600 0.0 2.3 8.3 132
12/09/2019 9:50 19.3 51 678.9 600 0.0 2.0 7.2 122
12/09/2019 10:00 20.2 49 699.1 600 0.0 1.4 5.0 127
12/09/2019 10:10 20.6 48 716.6 600 0.0 1.8 6.3 137
12/09/2019 10:20 21.2 47 729.8 600 0.0 1.5 5.3 163
12/09/2019 10:30 21.9 46 748.3 600 0.0 1.2 4.2 144
12/09/2019 10:40 22.8 44 761.9 600 0.0 1.3 4.8 188
12/09/2019 10:50 23.6 42 774.0 600 0.0 1.3 4.6 206
12/09/2019 11:00 24.1 40 785.5 600 0.0 1.7 6.0 205
12/09/2019 11:10 24.1 40 793.9 600 0.0 1.3 4.7 233
12/09/2019 11:20 24.9 39 800.0 600 0.0 1.1 4.0 216
12/09/2019 11:30 25.4 38 807.0 600 0.0 1.2 4.4 268
12/09/2019 11:40 25.8 37 811.0 600 0.0 1.0 3.5 356
12/09/2019 11:50 26.3 35 813.0 600 0.0 1.1 3.9 218
12/09/2019 12:00 26.9 34 815.0 600 0.0 1.4 4.9 241
12/09/2019 12:10 27.1 33 816.0 600 0.0 1.8 6.6 189
12/09/2019 12:20 27.5 33 815.0 600 0.0 1.6 5.9 201
12/09/2019 12:30 27.5 33 811.0 600 0.0 1.7 5.9 247
12/09/2019 12:40 28.0 33 805.0 600 0.0 1.5 5.2 285
12/09/2019 12:50 28.2 31 795.1 600 0.0 1.0 3.7 261
12/09/2019 13:00 28.5 31 785.9 600 0.0 1.6 5.8 353
12/09/2019 13:10 28.6 30 778.1 600 0.0 2.1 7.6 211
12/09/2019 13:20 29.3 29 768.5 600 0.0 1.8 6.6 212
12/09/2019 13:30 28.6 29 755.0 600 0.0 1.1 4.0 155
12/09/2019 13:40 29.1 29 740.4 600 0.0 1.2 4.3 158
12/09/2019 13:50 29.2 29 722.4 600 0.0 1.3 4.5 328
12/09/2019 14:00 29.7 28 704.2 600 0.0 1.3 4.7 203
12/09/2019 14:10 29.5 28 685.0 600 0.0 1.4 5.2 234
12/09/2019 14:20 29.9 28 665.8 600 0.0 1.9 6.9 295
12/09/2019 14:30 30.0 27 643.5 600 0.0 1.5 5.5 279
12/09/2019 14:40 29.7 27 623.1 600 0.0 1.7 6.2 327
12/09/2019 14:50 30.0 27 597.7 600 0.0 2.0 7.3 336
12/09/2019 15:00 29.7 27 573.3 600 0.0 2.3 8.4 287
12/09/2019 15:10 30.0 27 542.9 600 0.0 3.0 10.7 290
12/09/2019 15:20 30.0 27 516.0 600 0.0 2.3 8.4 307
12/09/2019 15:30 30.2 27 482.2 600 0.0 2.6 9.5 302
12/09/2019 15:40 29.9 27 458.2 600 0.0 2.7 9.6 296
12/09/2019 15:50 29.7 28 425.2 600 0.0 4.6 16.5 309
12/09/2019 16:00 29.4 32 395.2 600 0.0 4.2 14.9 316
12/09/2019 16:10 29.0 33 361.8 600 0.0 4.0 14.5 313
12/09/2019 16:20 28.7 34 329.6 600 0.0 4.0 14.4 311
12/09/2019 16:30 28.4 35 297.0 600 0.0 4.1 14.8 309
12/09/2019 16:40 28.3 35 264.9 600 0.0 4.4 15.7 316
12/09/2019 16:50 28.0 35 231.3 600 0.0 3.4 12.2 315
12/09/2019 17:00 27.8 36 198.3 600 0.0 3.8 13.8 307
12/09/2019 17:10 27.6 37 167.1 600 0.0 3.7 13.1 309
12/09/2019 17:20 27.0 37 137.1 600 0.0 3.9 13.9 302
12/09/2019 17:30 26.5 38 108.0 600 0.0 3.3 12.0 312
12/09/2019 17:40 26.0 38 80.7 600 0.0 3.0 10.9 319
12/09/2019 17:50 25.2 40 33.5 138 0.0 2.8 9.9 330
12/09/2019 18:00 24.8 42 15.6 0 0.0 3.2 11.5 340
12/09/2019 18:10 24.6 43 0.1 0 0.0 3.8 13.8 340
12/09/2019 18:20 24.0 44 0.0 0 0.0 2.9 10.5 339
12/09/2019 18:30 23.9 44 0.0 0 0.0 2.0 7.2 247
12/09/2019 18:40 23.4 47 0.0 0 0.0 1.2 4.4 254
12/09/2019 18:50 22.8 48 0.0 0 0.0 0.9 3.4 141
12/09/2019 19:00 22.3 49 0.0 0 0.0 0.4 1.6 246
12/09/2019 19:10 20.6 54 0.0 0 0.0 0.7 2.4 69
12/09/2019 19:20 19.6 57 0.0 0 0.0 0.3 0.9 44
12/09/2019 19:30 19.0 59 0.0 0 0.0 0.7 2.6 330
12/09/2019 19:40 19.5 58 0.0 0 0.0 1.1 3.9 268
12/09/2019 19:50 20.2 56 0.0 0 0.0 0.6 2.3 256
12/09/2019 20:00 20.2 56 0.0 0 0.0 0.8 3.0 305
12/09/2019 20:10 19.4 59 0.0 0 0.0 1.2 4.4 323
12/09/2019 20:20 19.0 60 0.0 0 0.0 0.9 3.1 322
12/09/2019 20:30 18.3 63 0.0 0 0.0 1.4 5.1 326
12/09/2019 20:40 17.8 64 0.0 0 0.0 2.6 9.4 314
12/09/2019 20:50 17.8 64 0.0 0 0.0 2.3 8.4 328
12/09/2019 21:00 18.1 63 0.0 0 0.0 1.0 3.4 284
12/09/2019 21:10 17.5 65 0.0 0 0.0 1.7 6.3 317
12/09/2019 21:20 17.4 66 0.0 0 0.0 2.0 7.3 314
12/09/2019 21:30 17.1 67 0.0 0 0.0 0.7 2.4 281
12/09/2019 21:40 16.8 68 0.0 0 0.0 1.6 5.8 303
12/09/2019 21:50 16.8 69 0.0 0 0.0 2.3 8.2 312
12/09/2019 22:00 17.7 66 0.0 0 0.0 1.1 3.8 278
12/09/2019 22:10 16.4 69 0.0 0 0.0 0.7 2.5 295
12/09/2019 22:20 16.1 70 0.0 0 0.0 0.5 1.8 305
12/09/2019 22:30 15.5 73 0.0 0 0.0 1.8 6.6 320
12/09/2019 22:40 15.9 72 0.0 0 0.0 0.5 1.7 232
12/09/2019 22:50 15.4 73 0.0 0 0.0 0.5 1.7 356
12/09/2019 23:00 15.2 75 0.0 0 0.0 1.2 4.3 323
12/09/2019 23:10 15.0 76 0.0 0 0.0 0.5 1.8 215
12/09/2019 23:20 14.8 77 0.0 0 0.0 0.7 2.6 62
12/09/2019 23:30 14.7 77 0.0 0 0.0 0.5 1.9 32
12/09/2019 23:40 14.8 79 0.0 0 0.0 1.4 5.1 77
12/09/2019 23:50 15.8 75 0.0 0 0.0 1.6 5.9 92
Anterior Página 1 de 1 Siguiente

NOTA: Tipo de datos según el color:
   - Valores diarios o 10 minutos correctos
   - Valores diarios calculados a partir de un número de datos 10 minutos menor que 144 y mayor que 120, o de un número de datos semihorarios menor que 48 y mayor que 40 (caso de las estaciones de Riegos de Navarra y del MARM)
   - Valores diez minutos estimados


Contacto        Enlaces        Aviso legal